Terminal Aerodrome Forecast
Issued by NWS Spokane, WA

Home | Current Version | Previous Version | Text Only | Print | Product List | Glossary On
Versions: 1 2 3 4 5 6 7 8 9 10 11 12 13 14 15 16
000
FTUS46 KOTX 252320
TAFLWS
TAF
KLWS 252320Z 2600/2624 10007KT P6SM SCT100
     FM260200 14012G18KT P6SM VCSH SCT070 BKN100 BKN150
     FM260500 17016G22KT P6SM SCT050 BKN100
     FM260900 22018G28KT P6SM SCT100 BKN150
     FM261400 22012KT P6SM SCT100 SCT150
     FM261900 26018G26KT P6SM SCT150=

USA.gov is the U.S. government's official web portal to all federal, state and local government web resources and services.